.
WxDataArchive / Data Records for 2015-12-16
2015-12-15 December 2015 2015-12-17

Data Records for Wednesday, 16 December 2015

Time	Temp	Chill	HIndex	Humid	Dewpt	 Wind 	HiWind	WindDir	Rain 	Barom
-----	----	-----	------	-----	-----	------	------	-------	-----	-----
00:00	42.1	42.1	42.1	91	39.7	0	2	90	0.00	29.935 
00:05	42.1	42.1	42.1	90	39.4	0	1	90	0.00	29.935 
00:10	42.1	42.1	42.1	90	39.4	0	1	90	0.00	29.935 
00:15	42.1	42.1	42.1	90	39.4	0	1	90	0.00	29.937 
00:20	42.1	42.1	42.1	90	39.4	0	2	90	0.00	29.937 
00:25	42.2	42.2	42.2	89	39.2	0	4	90	0.00	29.937 
00:30	42.2	42.2	42.2	89	39.2	0	1	112	0.00	29.930 
00:35	42.2	42.2	42.2	89	39.2	0	1	112	0.00	29.930 
00:40	42.2	42.2	42.2	88	38.9	0	2	112	0.00	29.930 
00:45	42.3	42.3	42.3	88	39.0	1	3	112	0.00	29.926 
00:50	42.3	42.3	42.3	88	39.0	0	1	68	0.00	29.926 
00:55	42.3	42.3	42.3	88	39.0	0	2	68	0.00	29.926 
01:00	42.3	42.3	42.3	88	39.0	1	4	68	0.00	29.924 
01:05	42.3	42.3	42.3	87	38.7	1	3	90	0.00	29.924 
01:10	42.3	42.3	42.3	86	38.4	1	4	112	0.00	29.924 
01:15	42.3	42.3	42.3	85	38.1	1	3	112	0.00	29.923 
01:20	42.5	42.5	42.5	85	38.3	0	2	112	0.00	29.923 
01:25	42.5	42.5	42.5	85	38.3	0	3	112	0.00	29.923 
01:30	42.5	42.5	42.5	84	38.0	0	3	90	0.00	29.922 
01:35	42.3	42.3	42.3	84	37.8	1	4	112	0.00	29.922 
01:40	42.3	42.3	42.3	84	37.8	1	4	112	0.00	29.922 
01:45	42.3	42.3	42.3	84	37.8	1	5	112	0.00	29.919 
01:50	42.2	42.2	42.2	84	37.7	0	3	112	0.00	29.919 
01:55	42.2	42.2	42.2	84	37.7	0	2	112	0.00	29.919 
02:00	42.2	42.2	42.2	84	37.7	1	4	112	0.00	29.924 
02:05	42.1	42.1	42.1	83	37.3	1	5	112	0.00	29.924 
02:10	41.9	41.9	41.9	83	37.1	1	5	112	0.00	29.924 
02:15	41.9	41.9	41.9	83	37.1	1	6	90	0.00	29.925 
02:20	41.8	41.8	41.8	83	37.0	1	5	90	0.00	29.925 
02:25	41.8	41.8	41.8	83	37.0	1	5	112	0.00	29.925 
02:30	41.8	41.8	41.8	84	37.3	1	4	112	0.00	29.925 
02:35	41.8	41.8	41.8	84	37.3	1	3	112	0.00	29.925 
02:40	41.6	41.6	41.6	84	37.1	1	3	90	0.00	29.925 
02:45	41.6	41.6	41.6	84	37.1	1	4	112	0.00	29.929 
02:50	41.6	41.6	41.6	84	37.1	1	4	90	0.00	29.929 
02:55	41.6	41.6	41.6	84	37.1	0	3	112	0.00	29.929 
03:00	41.6	41.6	41.6	83	36.8	1	4	135	0.00	29.936 
03:05	41.6	41.6	41.6	83	36.8	1	3	90	0.00	29.936 
03:10	41.5	41.5	41.5	83	36.7	1	3	112	0.00	29.936 
03:15	41.5	41.5	41.5	84	37.0	1	3	112	0.00	29.926 
03:20	41.5	41.5	41.5	84	37.0	0	4	135	0.00	29.926 
03:25	41.5	41.5	41.5	84	37.0	1	3	90	0.00	29.926 
03:30	41.5	41.5	41.5	84	37.0	1	3	112	0.00	29.923 
03:35	41.3	41.3	41.3	84	36.8	1	3	112	0.00	29.923 
03:40	41.3	41.3	41.3	84	36.8	1	4	112	0.00	29.923 
03:45	41.3	41.3	41.3	85	37.1	1	3	135	0.00	29.923 
03:50	41.3	41.3	41.3	85	37.1	0	3	135	0.00	29.923 
03:55	41.3	41.3	41.3	85	37.1	0	3	68	0.00	29.923 
04:00	41.3	41.3	41.3	85	37.1	0	3	112	0.00	29.912 
04:05	41.3	41.3	41.3	85	37.1	0	1	112	0.00	29.912 
04:10	41.3	41.3	41.3	85	37.1	0	2	112	0.00	29.912 
04:15	41.3	41.3	41.3	85	37.1	1	3	112	0.00	29.909 
04:20	41.3	41.3	41.3	86	37.4	1	4	112	0.00	29.909 
04:25	41.3	41.3	41.3	86	37.4	1	3	112	0.00	29.909 
04:30	41.3	41.3	41.3	86	37.4	0	2	112	0.00	29.903 
04:35	41.3	41.3	41.3	86	37.4	1	3	112	0.00	29.903 
04:40	41.3	41.3	41.3	86	37.4	2	4	112	0.00	29.903 
04:45	41.3	41.3	41.3	86	37.4	1	3	135	0.00	29.898 
04:50	41.3	41.3	41.3	87	37.7	0	4	90	0.00	29.898 
04:55	41.3	41.3	41.3	87	37.7	1	5	90	0.00	29.898 
05:00	41.3	41.3	41.3	87	37.7	2	4	90	0.00	29.895 
05:05	41.3	41.3	41.3	87	37.7	1	3	90	0.00	29.895 
05:10	41.3	41.3	41.3	87	37.7	1	4	90	0.00	29.895 
05:15	41.3	41.3	41.3	87	37.7	2	5	90	0.00	29.895 
05:20	41.3	41.3	41.3	87	37.7	1	4	90	0.00	29.895 
05:25	41.3	41.3	41.3	87	37.7	0	3	90	0.00	29.895 
05:30	41.3	41.3	41.3	88	38.0	0	2	90	0.00	29.894 
05:35	41.2	41.2	41.2	88	37.9	1	4	90	0.00	29.894 
05:40	41.2	41.2	41.2	88	37.9	0	2	90	0.00	29.894 
05:45	41.1	41.1	41.1	88	37.8	1	3	112	0.00	29.894 
05:50	41.1	41.1	41.1	88	37.8	1	4	112	0.00	29.894 
05:55	40.8	40.8	40.8	88	37.5	1	4	112	0.00	29.894 
06:00	40.6	40.6	40.6	88	37.3	1	4	112	0.00	29.892 
06:05	40.5	40.5	40.5	88	37.2	1	4	112	0.00	29.892 
06:10	40.3	40.3	40.3	89	37.3	1	5	112	0.00	29.892 
06:15	40.2	40.2	40.2	89	37.2	1	5	112	0.00	29.892 
06:20	40.1	40.1	40.1	89	37.1	1	4	90	0.00	29.892 
06:25	40.1	40.1	40.1	90	37.4	2	4	90	0.00	29.892 
06:30	39.9	39.9	39.9	90	37.2	1	6	90	0.00	29.887 
06:35	39.8	39.8	39.8	90	37.1	1	3	90	0.00	29.887 
06:40	39.6	39.6	39.6	90	36.9	1	4	90	0.00	29.887 
06:45	39.6	39.6	39.6	90	36.9	1	4	90	0.00	29.896 
06:50	39.5	39.5	39.5	90	36.8	1	4	90	0.00	29.896 
06:55	39.5	39.5	39.5	90	36.8	2	5	112	0.00	29.896 
07:00	39.3	39.3	39.3	90	36.6	3	6	112	0.00	29.890 
07:05	39.3	39.3	39.3	90	36.6	3	7	112	0.00	29.890 
07:10	39.3	39.3	39.3	90	36.6	3	6	90	0.00	29.890 
07:15	39.2	39.2	39.2	90	36.5	2	5	68	0.00	29.889 
07:20	39.2	39.2	39.2	90	36.5	3	4	90	0.00	29.889 
07:25	39.1	39.1	39.1	90	36.4	2	4	90	0.00	29.889 
07:30	38.9	38.9	38.9	90	36.2	1	3	90	0.00	29.889 
07:35	38.8	38.8	38.8	90	36.1	0	2	90	0.00	29.889 
07:40	38.8	38.8	38.8	90	36.1	0	2	112	0.00	29.889 
07:45	38.6	38.6	38.6	90	35.9	0	2	112	0.00	29.906 
07:50	38.5	38.5	38.5	90	35.8	0	1	135	0.00	29.906 
07:55	38.5	38.5	38.5	90	35.8	0	3	135	0.00	29.906 
08:00	38.3	38.3	38.3	90	35.6	2	4	135	0.00	29.894 
08:05	38.3	38.3	38.3	90	35.6	2	6	90	0.00	29.894 
08:10	38.5	38.5	38.5	90	35.8	2	6	112	0.00	29.894 
08:15	38.6	38.6	38.6	90	35.9	2	6	112	0.00	29.891 
08:20	38.6	38.6	38.6	90	35.9	1	5	90	0.00	29.891 
08:25	38.5	38.5	38.5	90	35.8	1	5	112	0.00	29.891 
08:30	38.5	38.5	38.5	90	35.8	1	5	112	0.00	29.894 
08:35	38.5	38.5	38.5	90	35.8	1	4	112	0.00	29.894 
08:40	38.5	38.5	38.5	90	35.8	1	5	112	0.00	29.894 
08:45	38.6	38.6	38.6	90	35.9	1	5	90	0.00	29.886 
08:50	38.8	38.8	38.8	90	36.1	1	4	90	0.00	29.886 
08:55	38.8	38.8	38.8	90	36.1	2	5	112	0.00	29.886 
09:00	38.9	38.9	38.9	90	36.2	1	4	90	0.00	29.883 
09:05	39.1	39.1	39.1	90	36.4	1	5	112	0.00	29.883 
09:10	39.2	39.2	39.2	90	36.5	2	5	112	0.00	29.883 
09:15	39.3	39.3	39.3	89	36.3	3	9	112	0.00	29.880 
09:20	39.5	39.5	39.5	89	36.5	2	7	90	0.00	29.880 
09:25	39.6	39.6	39.6	89	36.6	2	6	90	0.00	29.880 
09:30	39.8	39.8	39.8	89	36.8	1	5	90	0.00	29.872 
09:35	39.9	39.9	39.9	89	36.9	0	2	68	0.00	29.872 
09:40	40.1	40.1	40.1	89	37.1	2	9	112	0.00	29.872 
09:45	40.3	40.3	40.3	88	37.0	3	8	112	0.00	29.866 
09:50	40.5	40.5	40.5	88	37.2	2	7	112	0.00	29.866 
09:55	40.6	40.6	40.6	88	37.3	1	5	112	0.00	29.866 
10:00	40.9	40.9	40.9	88	37.6	1	4	112	0.00	29.859 
10:05	41.2	41.2	41.2	88	37.9	1	7	90	0.00	29.859 
10:10	41.6	41.6	41.6	87	38.0	2	5	90	0.00	29.859 
10:15	41.9	41.9	41.9	87	38.3	3	8	90	0.00	29.845 
10:20	42.2	42.2	42.2	86	38.3	3	11	112	0.00	29.845 
10:25	42.5	42.5	42.5	86	38.6	1	5	112	0.00	29.845 
10:30	42.9	42.9	42.9	85	38.7	2	6	112	0.00	29.831 
10:35	43.2	43.2	43.2	85	39.0	2	6	90	0.00	29.831 
10:40	43.6	43.6	43.6	85	39.4	2	6	112	0.00	29.831 
10:45	44.1	44.1	44.1	84	39.6	2	7	90	0.00	29.834 
10:50	44.5	44.5	44.5	84	40.0	3	9	90	0.00	29.834 
10:55	44.9	44.9	44.9	84	40.4	3	6	112	0.00	29.834 
11:00	45.2	45.2	45.2	83	40.3	2	6	90	0.00	29.831 
11:05	45.7	45.7	45.7	83	40.8	2	9	90	0.00	29.831 
11:10	46.4	46.4	46.4	82	41.2	2	5	90	0.00	29.831 
11:15	46.7	46.7	46.7	81	41.2	2	6	112	0.00	29.811 
11:20	47.0	47.0	47.0	81	41.5	3	10	90	0.00	29.811 
11:25	47.4	45.9	47.4	81	41.9	4	7	90	0.00	29.811 
11:30	47.7	47.7	47.7	80	41.8	3	9	112	0.00	29.773 
11:35	48.0	48.0	48.0	81	42.5	3	7	90	0.00	29.773 
11:40	48.2	48.2	48.2	80	42.3	2	7	112	0.00	29.773 
11:45	48.3	48.3	48.3	80	42.4	2	6	90	0.00	29.786 
11:50	48.3	48.3	48.3	80	42.4	1	4	112	0.00	29.786 
11:55	48.5	48.5	48.5	80	42.6	1	4	112	0.00	29.786 
12:00	48.6	48.6	48.6	80	42.7	1	4	90	0.00	29.794 
12:05	48.6	48.6	48.6	79	42.4	1	4	90	0.00	29.794 
12:10	48.6	48.6	48.6	80	42.7	0	3	68	0.00	29.794 
12:15	48.6	48.6	48.6	80	42.7	2	5	112	0.00	29.752 
12:20	48.6	48.6	48.6	81	43.0	1	5	112	0.00	29.752 
12:25	48.9	48.9	48.9	81	43.3	1	4	112	0.00	29.752 
12:30	49.2	49.2	49.2	80	43.3	2	5	112	0.00	29.745 
12:35	49.2	49.2	49.2	80	43.3	2	5	90	0.00	29.745 
12:40	49.4	49.4	49.4	80	43.5	2	6	90	0.00	29.745 
12:45	49.5	49.5	49.5	81	43.9	2	6	112	0.00	29.728 
12:50	49.6	49.6	49.6	81	44.0	1	5	90	0.00	29.728 
12:55	49.8	49.8	49.8	81	44.2	1	4	112	0.00	29.728 
13:00	49.9	49.9	49.9	81	44.3	1	5	112	0.00	29.738 
13:05	50.1	50.1	50.1	81	44.5	1	4	112	0.00	29.738 
13:10	50.1	50.1	50.1	81	44.5	1	6	135	0.00	29.738 
13:15	50.2	50.2	50.2	81	44.6	1	4	112	0.00	29.705 
13:20	50.2	50.2	50.2	81	44.6	2	5	90	0.00	29.705 
13:25	50.4	50.4	50.4	82	45.1	1	5	90	0.00	29.705 
13:30	50.5	50.5	50.5	82	45.2	2	8	90	0.00	29.687 
13:35	50.5	50.5	50.5	82	45.2	1	5	90	0.00	29.687 
13:40	50.7	50.7	50.7	82	45.4	2	7	90	0.00	29.687 
13:45	50.7	50.7	50.7	82	45.4	2	4	112	0.00	29.681 
13:50	50.7	50.7	50.7	82	45.4	1	5	90	0.00	29.681 
13:55	50.7	50.7	50.7	82	45.4	1	4	112	0.00	29.681 
14:00	50.8	50.8	50.8	82	45.5	0	3	112	0.00	29.687 
14:05	51.0	51.0	51.0	82	45.7	1	5	90	0.00	29.687 
14:10	51.3	51.3	51.3	81	45.7	1	4	90	0.00	29.687 
14:15	51.4	51.4	51.4	81	45.8	1	5	90	0.00	29.681 
14:20	51.6	51.6	51.6	80	45.6	1	4	90	0.00	29.681 
14:25	51.7	51.7	51.7	80	45.7	1	3	112	0.00	29.681 
14:30	51.9	51.9	51.9	80	45.9	1	5	112	0.00	29.653 
14:35	52.0	52.0	52.0	79	45.7	1	4	68	0.00	29.653 
14:40	52.3	52.3	52.3	80	46.3	1	5	90	0.00	29.653 
14:45	52.5	52.5	52.5	79	46.2	1	4	112	0.00	29.659 
14:50	52.6	52.6	52.6	78	45.9	2	7	112	0.00	29.659 
14:55	52.6	52.6	52.6	78	45.9	1	4	135	0.00	29.659 
15:00	52.6	52.6	52.6	78	45.9	1	3	135	0.00	29.648 
15:05	52.8	52.8	52.8	79	46.5	1	5	112	0.00	29.648 
15:10	52.8	52.8	52.8	80	46.8	1	4	112	0.00	29.648 
15:15	52.8	52.8	52.8	81	47.1	1	3	112	0.00	29.638 
15:20	52.8	52.8	52.8	81	47.1	1	4	112	0.00	29.638 
15:25	52.9	52.9	52.9	81	47.2	2	5	135	0.00	29.638 
15:30	53.3	53.3	53.3	80	47.3	0	2	135	0.00	29.633 
15:35	53.6	53.6	53.6	78	46.9	2	4	135	0.00	29.633 
15:40	53.6	53.6	53.6	77	46.6	2	12	112	0.00	29.633 
15:45	53.8	53.8	53.8	78	47.1	1	4	112	0.00	29.634 
15:50	53.8	53.8	53.8	78	47.1	0	2	112	0.00	29.634 
15:55	53.8	53.8	53.8	78	47.1	0	3	112	0.00	29.634 
16:00	53.6	53.6	53.6	79	47.2	1	4	112	0.00	29.639 
16:05	53.6	53.6	53.6	82	48.2	1	4	112	0.00	29.639 
16:10	53.6	53.6	53.6	79	47.2	1	3	112	0.00	29.639 
16:15	53.6	53.6	53.6	79	47.2	1	3	112	0.00	29.634 
16:20	53.6	53.6	53.6	79	47.2	1	4	112	0.00	29.634 
16:25	53.8	53.8	53.8	79	47.4	1	6	45	0.00	29.634 
16:30	53.9	53.9	53.9	79	47.5	1	6	112	0.00	29.622 
16:35	53.9	53.9	53.9	78	47.2	1	4	90	0.00	29.622 
16:40	53.9	53.9	53.9	78	47.2	0	3	45	0.00	29.622 
16:45	53.9	53.9	53.9	78	47.2	1	4	45	0.00	29.626 
16:50	53.9	53.9	53.9	78	47.2	1	2	68	0.00	29.626 
16:55	53.9	53.9	53.9	78	47.2	0	2	68	0.00	29.626 
17:00	53.9	53.9	53.9	78	47.2	1	2	68	0.00	29.619 
17:05	53.9	53.9	53.9	78	47.2	1	3	68	0.00	29.619 
17:10	53.9	53.9	53.9	78	47.2	1	4	90	0.00	29.619 
17:15	54.1	54.1	54.1	79	47.7	1	3	338	0.00	29.629 
17:20	54.2	54.2	54.2	79	47.8	1	4	292	0.00	29.629 
17:25	54.2	54.2	54.2	79	47.8	0	3	270	0.00	29.629 
17:30	54.2	54.2	54.2	80	48.2	1	3	270	0.00	29.631 
17:35	54.4	54.4	54.4	81	48.7	1	4	270	0.00	29.631 
17:40	54.2	54.2	54.2	83	49.1	1	3	248	0.00	29.631 
17:45	53.9	53.9	53.9	85	49.5	1	4	248	0.00	29.632 
17:50	53.5	53.5	53.5	86	49.4	1	3	248	0.01	29.632 
17:55	53.2	53.2	53.2	87	49.4	1	3	248	0.00	29.632 
18:00	53.1	53.1	53.1	88	49.6	1	7	45	0.00	29.628 
18:05	52.9	52.9	52.9	89	49.7	1	5	0	0.00	29.628 
18:10	52.8	52.8	52.8	89	49.6	0	3	248	0.00	29.628 
18:15	52.6	52.6	52.6	90	49.7	0	2	338	0.00	29.632 
18:20	52.6	52.6	52.6	90	49.7	1	4	338	0.00	29.632 
18:25	52.6	52.6	52.6	90	49.7	1	6	90	0.00	29.632 
18:30	52.8	52.8	52.8	90	49.9	1	6	90	0.00	29.627 
18:35	52.8	52.8	52.8	89	49.6	2	5	90	0.00	29.627 
18:40	52.9	52.9	52.9	89	49.7	1	4	248	0.00	29.627 
18:45	52.9	52.9	52.9	89	49.7	1	3	248	0.00	29.635 
18:50	52.9	52.9	52.9	89	49.7	1	5	248	0.00	29.635 
18:55	52.9	52.9	52.9	88	49.4	0	2	248	0.00	29.635 
19:00	52.8	52.8	52.8	88	49.3	0	1	248	0.00	29.647 
19:05	52.8	52.8	52.8	88	49.3	0	1	248	0.00	29.647 
19:10	52.8	52.8	52.8	88	49.3	1	3	248	0.00	29.647 
19:15	52.8	52.8	52.8	88	49.3	0	2	248	0.00	29.652 
19:20	52.8	52.8	52.8	88	49.3	1	5	248	0.00	29.652 
19:25	52.8	52.8	52.8	88	49.3	1	5	248	0.00	29.652 
19:30	52.8	52.8	52.8	88	49.3	1	4	248	0.00	29.650 
19:35	52.6	52.6	52.6	88	49.1	0	3	270	0.00	29.650 
19:40	52.5	52.5	52.5	88	49.0	0	2	338	0.00	29.650 
19:45	52.3	52.3	52.3	88	48.9	0	2	338	0.00	29.652 
19:50	52.2	52.2	52.2	88	48.8	0	1	338	0.00	29.652 
19:55	51.9	51.9	51.9	88	48.5	0	2	338	0.00	29.652 
20:00	51.7	51.7	51.7	88	48.3	0	1	338	0.00	29.652 
20:05	51.6	51.6	51.6	88	48.2	0	1	338	0.00	29.652 
20:10	51.3	51.3	51.3	88	47.9	0	2	315	0.00	29.652 
20:15	51.1	51.1	51.1	88	47.7	0	0	---	0.00	29.650 
20:20	50.8	50.8	50.8	89	47.7	0	2	315	0.00	29.650 
20:25	50.7	50.7	50.7	89	47.6	0	4	315	0.00	29.650 
20:30	50.7	50.7	50.7	90	47.9	0	2	315	0.00	29.651 
20:35	50.7	50.7	50.7	90	47.9	0	2	315	0.00	29.651 
20:40	50.8	50.8	50.8	90	48.0	0	3	315	0.00	29.651 
20:45	50.8	50.8	50.8	91	48.3	0	3	315	0.00	29.649 
20:50	50.7	50.7	50.7	91	48.2	0	1	315	0.00	29.649 
20:55	50.7	50.7	50.7	91	48.2	0	1	315	0.00	29.649 
21:00	50.5	50.5	50.5	91	48.0	0	2	315	0.00	29.644 
21:05	50.4	50.4	50.4	91	47.9	0	1	315	0.00	29.644 
21:10	50.4	50.4	50.4	91	47.9	0	2	315	0.00	29.644 
21:15	50.2	50.2	50.2	91	47.7	0	2	315	0.00	29.639 
21:20	50.2	50.2	50.2	91	47.7	0	3	315	0.00	29.639 
21:25	50.2	50.2	50.2	91	47.7	0	2	292	0.00	29.639 
21:30	50.4	50.4	50.4	91	47.9	1	3	270	0.00	29.640 
21:35	50.5	50.5	50.5	91	48.0	0	2	248	0.00	29.640 
21:40	50.7	50.7	50.7	91	48.2	1	3	248	0.00	29.640 
21:45	50.8	50.8	50.8	90	48.0	1	4	225	0.00	29.642 
21:50	51.0	51.0	51.0	90	48.2	1	5	248	0.00	29.642 
21:55	50.1	50.1	50.1	87	46.4	3	11	248	0.00	29.642 
22:00	48.8	48.8	48.8	69	39.1	3	7	248	0.00	29.667 
22:05	48.2	48.2	48.2	65	37.0	2	4	270	0.00	29.667 
22:10	47.9	47.9	47.9	63	35.9	2	5	270	0.00	29.667 
22:15	47.7	47.7	47.7	64	36.1	1	4	248	0.00	29.673 
22:20	47.4	47.4	47.4	63	35.4	2	4	248	0.00	29.673 
22:25	47.1	47.1	47.1	60	33.9	3	5	270	0.00	29.673 
22:30	46.7	46.7	46.7	60	33.6	3	6	270	0.00	29.680 
22:35	46.4	46.4	46.4	61	33.7	1	3	270	0.00	29.680 
22:40	45.8	45.8	45.8	59	32.3	2	5	270	0.00	29.680 
22:45	45.5	45.5	45.5	59	32.0	2	4	270	0.00	29.693 
22:50	45.1	45.1	45.1	60	32.1	2	4	248	0.00	29.693 
22:55	44.8	44.8	44.8	61	32.2	2	5	270	0.00	29.693 
23:00	44.5	44.5	44.5	62	32.3	3	5	270	0.00	29.696 
23:05	44.3	44.3	44.3	63	32.5	2	5	270	0.00	29.696 
23:10	44.2	44.2	44.2	64	32.8	2	5	292	0.00	29.696 
23:15	44.1	44.1	44.1	65	33.1	2	5	248	0.00	29.698 
23:20	43.8	43.8	43.8	66	33.2	2	5	248	0.00	29.698 
23:25	43.5	43.5	43.5	66	32.9	2	4	292	0.00	29.698 
23:30	43.2	43.2	43.2	67	33.0	2	4	270	0.00	29.695 
23:35	43.1	43.1	43.1	68	33.3	3	6	270	0.00	29.695 
23:40	42.8	42.8	42.8	68	33.0	3	5	270	0.00	29.695 
23:45	42.6	42.6	42.6	69	33.2	3	5	270	0.00	29.697 
23:50	42.5	40.2	42.5	68	32.7	4	9	270	0.00	29.697 
23:55	42.3	40.0	42.3	67	32.1	4	6	270	0.00	29.697 

CoCoRaHS
IN-AL-39
A2 Web Hosting
Creative Commons License
GoDaddy
search engine by freefind advanced

loaded 2018-11-17 12:48:52 • last modified 2010-11-18 10:43:29
Privacy PolicyDisclaimer
• wx.awcolley.com is powered by PmWiki v.2002016 •
• all content (unless otherwise noted) © 2018 A W Colley